sensor_id;sensor_type;location;lat;lon;timestamp;P1;durP1;ratioP1;P2;durP2;ratioP2
72926;SDS011;61071;51.618;19.388;2023-06-19T00:00:10;12.45;;;9.90;;
72926;SDS011;61071;51.618;19.388;2023-06-19T00:02:41;12.43;;;11.23;;
72926;SDS011;61071;51.618;19.388;2023-06-19T00:05:08;11.05;;;9.95;;
72926;SDS011;61071;51.618;19.388;2023-06-19T00:07:37;10.70;;;9.13;;
72926;SDS011;61071;51.618;19.388;2023-06-19T00:10:04;13.45;;;10.57;;
72926;SDS011;61071;51.618;19.388;2023-06-19T00:12:31;14.80;;;12.55;;
72926;SDS011;61071;51.618;19.388;2023-06-19T00:14:56;11.43;;;10.35;;
72926;SDS011;61071;51.618;19.388;2023-06-19T00:17:22;14.45;;;13.05;;
72926;SDS011;61071;51.618;19.388;2023-06-19T00:19:51;18.90;;;15.80;;
72926;SDS011;61071;51.618;19.388;2023-06-19T00:22:17;22.00;;;15.50;;
72926;SDS011;61071;51.618;19.388;2023-06-19T00:24:43;15.20;;;12.15;;
72926;SDS011;61071;51.618;19.388;2023-06-19T00:27:08;45.28;;;14.50;;
72926;SDS011;61071;51.618;19.388;2023-06-19T00:29:33;20.00;;;13.50;;
72926;SDS011;61071;51.618;19.388;2023-06-19T00:31:59;98.53;;;19.65;;
72926;SDS011;61071;51.618;19.388;2023-06-19T00:34:25;57.15;;;14.95;;
72926;SDS011;61071;51.618;19.388;2023-06-19T00:36:51;19.38;;;13.60;;
72926;SDS011;61071;51.618;19.388;2023-06-19T00:39:21;14.40;;;13.02;;
72926;SDS011;61071;51.618;19.388;2023-06-19T00:41:47;16.73;;;15.13;;
72926;SDS011;61071;51.618;19.388;2023-06-19T00:44:14;15.82;;;14.27;;
72926;SDS011;61071;51.618;19.388;2023-06-19T00:46:40;15.07;;;13.40;;
72926;SDS011;61071;51.618;19.388;2023-06-19T00:49:06;16.73;;;14.30;;
72926;SDS011;61071;51.618;19.388;2023-06-19T00:51:33;16.95;;;14.68;;
72926;SDS011;61071;51.618;19.388;2023-06-19T00:53:58;15.90;;;14.30;;
72926;SDS011;61071;51.618;19.388;2023-06-19T00:56:24;20.80;;;15.23;;
72926;SDS011;61071;51.618;19.388;2023-06-19T00:58:50;16.15;;;14.55;;
72926;SDS011;61071;51.618;19.388;2023-06-19T01:01:19;16.58;;;14.98;;
72926;SDS011;61071;51.618;19.388;2023-06-19T01:03:46;19.27;;;15.32;;
72926;SDS011;61071;51.618;19.388;2023-06-19T01:06:15;18.75;;;14.93;;
72926;SDS011;61071;51.618;19.388;2023-06-19T01:09:01;20.47;;;15.30;;
72926;SDS011;61071;51.618;19.388;2023-06-19T01:11:32;18.88;;;13.75;;
72926;SDS011;61071;51.618;19.388;2023-06-19T01:14:12;14.60;;;12.60;;
72926;SDS011;61071;51.618;19.388;2023-06-19T01:16:44;19.58;;;14.18;;
72926;SDS011;61071;51.618;19.388;2023-06-19T01:19:11;19.83;;;14.80;;
72926;SDS011;61071;51.618;19.388;2023-06-19T01:21:46;16.80;;;13.90;;
72926;SDS011;61071;51.618;19.388;2023-06-19T01:24:13;19.13;;;14.43;;
72926;SDS011;61071;51.618;19.388;2023-06-19T01:26:39;16.90;;;13.13;;
72926;SDS011;61071;51.618;19.388;2023-06-19T01:29:05;22.45;;;14.55;;
72926;SDS011;61071;51.618;19.388;2023-06-19T01:31:33;23.38;;;15.23;;
72926;SDS011;61071;51.618;19.388;2023-06-19T01:34:07;15.43;;;13.77;;
72926;SDS011;61071;51.618;19.388;2023-06-19T01:36:35;19.48;;;13.48;;
72926;SDS011;61071;51.618;19.388;2023-06-19T01:39:01;15.80;;;14.30;;
72926;SDS011;61071;51.618;19.388;2023-06-19T01:41:27;18.52;;;14.23;;
72926;SDS011;61071;51.618;19.388;2023-06-19T01:43:55;15.68;;;13.98;;
72926;SDS011;61071;51.618;19.388;2023-06-19T01:46:23;18.30;;;14.65;;
72926;SDS011;61071;51.618;19.388;2023-06-19T01:48:48;16.50;;;14.23;;
72926;SDS011;61071;51.618;19.388;2023-06-19T01:51:13;15.93;;;14.18;;
72926;SDS011;61071;51.618;19.388;2023-06-19T01:53:39;15.65;;;13.60;;
72926;SDS011;61071;51.618;19.388;2023-06-19T01:56:04;13.00;;;11.75;;
72926;SDS011;61071;51.618;19.388;2023-06-19T01:58:30;18.55;;;14.35;;
72926;SDS011;61071;51.618;19.388;2023-06-19T02:00:55;17.63;;;13.15;;
72926;SDS011;61071;51.618;19.388;2023-06-19T02:03:21;14.13;;;11.65;;
72926;SDS011;61071;51.618;19.388;2023-06-19T02:05:46;33.22;;;16.55;;
72926;SDS011;61071;51.618;19.388;2023-06-19T02:08:12;14.30;;;11.23;;
72926;SDS011;61071;51.618;19.388;2023-06-19T02:10:37;26.35;;;15.65;;
72926;SDS011;61071;51.618;19.388;2023-06-19T02:13:03;27.77;;;15.02;;
72926;SDS011;61071;51.618;19.388;2023-06-19T02:15:28;24.25;;;15.32;;
72926;SDS011;61071;51.618;19.388;2023-06-19T02:17:55;17.63;;;13.77;;
72926;SDS011;61071;51.618;19.388;2023-06-19T02:20:21;20.27;;;15.35;;
72926;SDS011;61071;51.618;19.388;2023-06-19T02:22:49;14.25;;;12.75;;
72926;SDS011;61071;51.618;19.388;2023-06-19T02:25:15;17.10;;;13.25;;
72926;SDS011;61071;51.618;19.388;2023-06-19T02:27:41;14.00;;;12.50;;
72926;SDS011;61071;51.618;19.388;2023-06-19T02:30:06;18.73;;;13.70;;
72926;SDS011;61071;51.618;19.388;2023-06-19T02:32:33;20.20;;;14.18;;
72926;SDS011;61071;51.618;19.388;2023-06-19T02:34:58;16.42;;;12.85;;
72926;SDS011;61071;51.618;19.388;2023-06-19T02:37:23;15.57;;;13.65;;
72926;SDS011;61071;51.618;19.388;2023-06-19T02:39:49;14.95;;;12.88;;
72926;SDS011;61071;51.618;19.388;2023-06-19T02:42:14;15.60;;;13.30;;
72926;SDS011;61071;51.618;19.388;2023-06-19T02:44:40;14.73;;;13.18;;
72926;SDS011;61071;51.618;19.388;2023-06-19T02:47:07;16.88;;;13.52;;
72926;SDS011;61071;51.618;19.388;2023-06-19T02:49:32;15.05;;;13.55;;
72926;SDS011;61071;51.618;19.388;2023-06-19T02:51:58;17.70;;;13.25;;
72926;SDS011;61071;51.618;19.388;2023-06-19T02:54:23;15.05;;;13.43;;
72926;SDS011;61071;51.618;19.388;2023-06-19T02:56:49;17.35;;;14.27;;
72926;SDS011;61071;51.618;19.388;2023-06-19T02:59:14;15.27;;;13.30;;
72926;SDS011;61071;51.618;19.388;2023-06-19T03:01:39;16.15;;;14.35;;
72926;SDS011;61071;51.618;19.388;2023-06-19T03:04:05;16.98;;;13.93;;
72926;SDS011;61071;51.618;19.388;2023-06-19T03:06:31;20.48;;;14.02;;
72926;SDS011;61071;51.618;19.388;2023-06-19T03:08:58;16.15;;;13.63;;
72926;SDS011;61071;51.618;19.388;2023-06-19T03:11:24;19.10;;;12.88;;
72926;SDS011;61071;51.618;19.388;2023-06-19T03:13:50;20.38;;;12.82;;
72926;SDS011;61071;51.618;19.388;2023-06-19T03:16:18;13.18;;;10.57;;
72926;SDS011;61071;51.618;19.388;2023-06-19T03:18:44;12.25;;;10.77;;
72926;SDS011;61071;51.618;19.388;2023-06-19T03:21:12;11.30;;;10.20;;
72926;SDS011;61071;51.618;19.388;2023-06-19T03:23:39;10.90;;;9.73;;
72926;SDS011;61071;51.618;19.388;2023-06-19T03:26:10;13.40;;;9.25;;
72926;SDS011;61071;51.618;19.388;2023-06-19T03:28:36;10.30;;;9.07;;
72926;SDS011;61071;51.618;19.388;2023-06-19T03:31:02;9.82;;;8.82;;
72926;SDS011;61071;51.618;19.388;2023-06-19T03:33:27;13.88;;;9.02;;
72926;SDS011;61071;51.618;19.388;2023-06-19T03:35:53;11.00;;;8.75;;
72926;SDS011;61071;51.618;19.388;2023-06-19T03:38:18;10.25;;;8.23;;
72926;SDS011;61071;51.618;19.388;2023-06-19T03:40:43;10.40;;;7.63;;
72926;SDS011;61071;51.618;19.388;2023-06-19T03:43:09;8.52;;;7.60;;
72926;SDS011;61071;51.618;19.388;2023-06-19T03:45:35;12.35;;;6.47;;
72926;SDS011;61071;51.618;19.388;2023-06-19T03:48:01;10.50;;;6.35;;
72926;SDS011;61071;51.618;19.388;2023-06-19T03:50:26;6.85;;;5.60;;
72926;SDS011;61071;51.618;19.388;2023-06-19T03:52:52;6.43;;;5.75;;
72926;SDS011;61071;51.618;19.388;2023-06-19T03:55:17;6.78;;;6.18;;
72926;SDS011;61071;51.618;19.388;2023-06-19T03:57:43;8.00;;;6.00;;
72926;SDS011;61071;51.618;19.388;2023-06-19T04:00:08;6.45;;;5.50;;
72926;SDS011;61071;51.618;19.388;2023-06-19T04:02:36;11.65;;;6.78;;
72926;SDS011;61071;51.618;19.388;2023-06-19T04:05:02;8.50;;;7.20;;
72926;SDS011;61071;51.618;19.388;2023-06-19T04:07:28;7.28;;;6.55;;
72926;SDS011;61071;51.618;19.388;2023-06-19T04:09:53;6.82;;;6.10;;
72926;SDS011;61071;51.618;19.388;2023-06-19T04:12:19;6.35;;;5.75;;
72926;SDS011;61071;51.618;19.388;2023-06-19T04:14:44;6.68;;;5.97;;
72926;SDS011;61071;51.618;19.388;2023-06-19T04:17:09;7.50;;;6.22;;
72926;SDS011;61071;51.618;19.388;2023-06-19T04:19:35;11.88;;;6.35;;
72926;SDS011;61071;51.618;19.388;2023-06-19T04:22:00;6.30;;;5.65;;
72926;SDS011;61071;51.618;19.388;2023-06-19T04:24:26;12.02;;;7.32;;
72926;SDS011;61071;51.618;19.388;2023-06-19T04:26:51;29.42;;;18.13;;
72926;SDS011;61071;51.618;19.388;2023-06-19T04:29:17;22.45;;;14.95;;
72926;SDS011;61071;51.618;19.388;2023-06-19T04:31:46;18.95;;;12.30;;
72926;SDS011;61071;51.618;19.388;2023-06-19T04:34:17;27.13;;;14.88;;
72926;SDS011;61071;51.618;19.388;2023-06-19T04:36:49;28.73;;;16.20;;
72926;SDS011;61071;51.618;19.388;2023-06-19T04:39:14;23.63;;;13.48;;
72926;SDS011;61071;51.618;19.388;2023-06-19T04:41:40;18.50;;;12.52;;
72926;SDS011;61071;51.618;19.388;2023-06-19T04:44:08;15.13;;;11.98;;
72926;SDS011;61071;51.618;19.388;2023-06-19T04:46:37;13.00;;;9.63;;
72926;SDS011;61071;51.618;19.388;2023-06-19T04:49:03;10.00;;;8.95;;
72926;SDS011;61071;51.618;19.388;2023-06-19T04:51:30;10.23;;;8.98;;
72926;SDS011;61071;51.618;19.388;2023-06-19T04:53:58;10.00;;;9.00;;
72926;SDS011;61071;51.618;19.388;2023-06-19T04:56:24;9.10;;;7.78;;
72926;SDS011;61071;51.618;19.388;2023-06-19T04:58:49;8.98;;;7.57;;
72926;SDS011;61071;51.618;19.388;2023-06-19T05:01:16;8.30;;;7.50;;
72926;SDS011;61071;51.618;19.388;2023-06-19T05:03:43;9.02;;;7.80;;
72926;SDS011;61071;51.618;19.388;2023-06-19T05:06:13;9.00;;;8.20;;
72926;SDS011;61071;51.618;19.388;2023-06-19T05:08:39;9.13;;;8.00;;
72926;SDS011;61071;51.618;19.388;2023-06-19T05:11:04;8.15;;;7.25;;
72926;SDS011;61071;51.618;19.388;2023-06-19T05:13:29;7.95;;;7.20;;
72926;SDS011;61071;51.618;19.388;2023-06-19T05:15:55;7.53;;;6.90;;
72926;SDS011;61071;51.618;19.388;2023-06-19T05:18:23;8.38;;;7.60;;
72926;SDS011;61071;51.618;19.388;2023-06-19T05:20:48;10.98;;;7.45;;
72926;SDS011;61071;51.618;19.388;2023-06-19T05:23:14;7.25;;;6.53;;
72926;SDS011;61071;51.618;19.388;2023-06-19T05:25:39;9.98;;;6.93;;
72926;SDS011;61071;51.618;19.388;2023-06-19T05:28:05;7.93;;;7.13;;
72926;SDS011;61071;51.618;19.388;2023-06-19T05:30:30;8.38;;;6.13;;
72926;SDS011;61071;51.618;19.388;2023-06-19T05:32:55;7.07;;;6.38;;
72926;SDS011;61071;51.618;19.388;2023-06-19T05:35:21;8.63;;;6.65;;
72926;SDS011;61071;51.618;19.388;2023-06-19T05:37:46;7.47;;;6.68;;
72926;SDS011;61071;51.618;19.388;2023-06-19T05:40:12;9.10;;;6.35;;
72926;SDS011;61071;51.618;19.388;2023-06-19T05:42:38;6.88;;;6.20;;
72926;SDS011;61071;51.618;19.388;2023-06-19T05:45:05;6.97;;;6.32;;
72926;SDS011;61071;51.618;19.388;2023-06-19T05:47:31;7.53;;;6.72;;
72926;SDS011;61071;51.618;19.388;2023-06-19T05:49:57;6.93;;;6.07;;
72926;SDS011;61071;51.618;19.388;2023-06-19T05:52:23;6.68;;;6.00;;
72926;SDS011;61071;51.618;19.388;2023-06-19T05:54:48;80.18;;;42.75;;
72926;SDS011;61071;51.618;19.388;2023-06-19T05:57:14;12.77;;;10.07;;
72926;SDS011;61071;51.618;19.388;2023-06-19T05:59:45;9.32;;;5.75;;
72926;SDS011;61071;51.618;19.388;2023-06-19T06:02:14;8.77;;;6.68;;
72926;SDS011;61071;51.618;19.388;2023-06-19T06:04:40;13.60;;;6.07;;
72926;SDS011;61071;51.618;19.388;2023-06-19T06:07:06;6.53;;;5.75;;
72926;SDS011;61071;51.618;19.388;2023-06-19T06:09:31;6.53;;;5.90;;
72926;SDS011;61071;51.618;19.388;2023-06-19T06:11:58;11.38;;;5.95;;
72926;SDS011;61071;51.618;19.388;2023-06-19T06:14:23;6.93;;;5.80;;
72926;SDS011;61071;51.618;19.388;2023-06-19T06:16:49;9.32;;;5.90;;
72926;SDS011;61071;51.618;19.388;2023-06-19T06:19:14;6.60;;;6.00;;
72926;SDS011;61071;51.618;19.388;2023-06-19T06:21:40;7.72;;;5.68;;
72926;SDS011;61071;51.618;19.388;2023-06-19T06:24:06;5.32;;;4.82;;
72926;SDS011;61071;51.618;19.388;2023-06-19T06:26:31;5.88;;;4.65;;
72926;SDS011;61071;51.618;19.388;2023-06-19T06:28:58;5.15;;;4.60;;
72926;SDS011;61071;51.618;19.388;2023-06-19T06:31:23;5.82;;;4.15;;
72926;SDS011;61071;51.618;19.388;2023-06-19T06:33:49;6.40;;;4.72;;
72926;SDS011;61071;51.618;19.388;2023-06-19T06:36:14;5.88;;;4.50;;
72926;SDS011;61071;51.618;19.388;2023-06-19T06:38:40;4.93;;;4.53;;
72926;SDS011;61071;51.618;19.388;2023-06-19T06:41:06;8.23;;;5.07;;
72926;SDS011;61071;51.618;19.388;2023-06-19T06:43:32;5.25;;;4.55;;
72926;SDS011;61071;51.618;19.388;2023-06-19T06:45:57;4.82;;;4.43;;
72926;SDS011;61071;51.618;19.388;2023-06-19T06:48:23;5.93;;;4.25;;
72926;SDS011;61071;51.618;19.388;2023-06-19T06:50:48;5.22;;;4.20;;
72926;SDS011;61071;51.618;19.388;2023-06-19T06:53:14;6.30;;;4.50;;
72926;SDS011;61071;51.618;19.388;2023-06-19T06:55:39;3.95;;;3.58;;
72926;SDS011;61071;51.618;19.388;2023-06-19T06:58:05;4.22;;;3.80;;
72926;SDS011;61071;51.618;19.388;2023-06-19T07:00:30;4.97;;;3.65;;
72926;SDS011;61071;51.618;19.388;2023-06-19T07:02:56;4.25;;;3.85;;
72926;SDS011;61071;51.618;19.388;2023-06-19T07:05:21;4.13;;;3.72;;
72926;SDS011;61071;51.618;19.388;2023-06-19T07:07:47;7.72;;;4.10;;
72926;SDS011;61071;51.618;19.388;2023-06-19T07:10:13;4.10;;;3.70;;
72926;SDS011;61071;51.618;19.388;2023-06-19T07:12:45;4.53;;;3.83;;
72926;SDS011;61071;51.618;19.388;2023-06-19T07:15:14;5.05;;;4.32;;
72926;SDS011;61071;51.618;19.388;2023-06-19T07:17:40;6.53;;;4.05;;
72926;SDS011;61071;51.618;19.388;2023-06-19T07:20:06;6.22;;;3.97;;
72926;SDS011;61071;51.618;19.388;2023-06-19T07:22:32;5.68;;;3.83;;
72926;SDS011;61071;51.618;19.388;2023-06-19T07:24:57;6.70;;;3.50;;
72926;SDS011;61071;51.618;19.388;2023-06-19T07:27:23;4.10;;;3.65;;
72926;SDS011;61071;51.618;19.388;2023-06-19T07:29:52;3.78;;;3.45;;
72926;SDS011;61071;51.618;19.388;2023-06-19T07:32:18;5.13;;;4.13;;
72926;SDS011;61071;51.618;19.388;2023-06-19T07:34:44;6.32;;;3.55;;
72926;SDS011;61071;51.618;19.388;2023-06-19T07:37:10;4.10;;;3.70;;
72926;SDS011;61071;51.618;19.388;2023-06-19T07:39:42;3.95;;;3.55;;
72926;SDS011;61071;51.618;19.388;2023-06-19T07:42:09;5.22;;;4.72;;
72926;SDS011;61071;51.618;19.388;2023-06-19T07:44:35;6.03;;;3.58;;
72926;SDS011;61071;51.618;19.388;2023-06-19T07:47:01;6.55;;;5.03;;
72926;SDS011;61071;51.618;19.388;2023-06-19T07:49:26;4.00;;;3.60;;
72926;SDS011;61071;51.618;19.388;2023-06-19T07:51:52;3.80;;;3.45;;
72926;SDS011;61071;51.618;19.388;2023-06-19T07:54:17;4.30;;;3.40;;
72926;SDS011;61071;51.618;19.388;2023-06-19T07:56:43;4.55;;;3.95;;
72926;SDS011;61071;51.618;19.388;2023-06-19T07:59:08;4.03;;;3.67;;
72926;SDS011;61071;51.618;19.388;2023-06-19T08:01:33;3.50;;;3.20;;
72926;SDS011;61071;51.618;19.388;2023-06-19T08:03:59;4.20;;;3.78;;
72926;SDS011;61071;51.618;19.388;2023-06-19T08:06:24;5.32;;;3.50;;
72926;SDS011;61071;51.618;19.388;2023-06-19T08:08:50;4.10;;;3.70;;
72926;SDS011;61071;51.618;19.388;2023-06-19T08:11:16;5.13;;;3.92;;
72926;SDS011;61071;51.618;19.388;2023-06-19T08:13:42;4.60;;;4.15;;
72926;SDS011;61071;51.618;19.388;2023-06-19T08:16:07;4.55;;;3.70;;
72926;SDS011;61071;51.618;19.388;2023-06-19T08:18:35;5.07;;;3.90;;
72926;SDS011;61071;51.618;19.388;2023-06-19T08:21:01;3.92;;;3.63;;
72926;SDS011;61071;51.618;19.388;2023-06-19T08:23:26;5.97;;;3.70;;
72926;SDS011;61071;51.618;19.388;2023-06-19T08:25:51;5.05;;;3.97;;
72926;SDS011;61071;51.618;19.388;2023-06-19T08:28:17;6.22;;;4.30;;
72926;SDS011;61071;51.618;19.388;2023-06-19T08:30:44;4.15;;;3.75;;
72926;SDS011;61071;51.618;19.388;2023-06-19T08:33:10;3.47;;;3.17;;
72926;SDS011;61071;51.618;19.388;2023-06-19T08:35:37;3.78;;;3.42;;
72926;SDS011;61071;51.618;19.388;2023-06-19T08:38:03;3.85;;;3.22;;
72926;SDS011;61071;51.618;19.388;2023-06-19T08:40:28;4.80;;;3.15;;
72926;SDS011;61071;51.618;19.388;2023-06-19T08:42:54;7.47;;;3.35;;
72926;SDS011;61071;51.618;19.388;2023-06-19T08:45:20;3.95;;;2.95;;
72926;SDS011;61071;51.618;19.388;2023-06-19T08:47:47;3.55;;;3.25;;
72926;SDS011;61071;51.618;19.388;2023-06-19T08:50:14;2.60;;;2.40;;
72926;SDS011;61071;51.618;19.388;2023-06-19T08:52:41;3.38;;;2.88;;
72926;SDS011;61071;51.618;19.388;2023-06-19T08:55:06;3.72;;;3.28;;
72926;SDS011;61071;51.618;19.388;2023-06-19T08:57:33;3.03;;;2.83;;
72926;SDS011;61071;51.618;19.388;2023-06-19T09:00:05;4.07;;;3.05;;
72926;SDS011;61071;51.618;19.388;2023-06-19T09:02:36;3.58;;;3.10;;
72926;SDS011;61071;51.618;19.388;2023-06-19T09:05:13;3.63;;;3.10;;
72926;SDS011;61071;51.618;19.388;2023-06-19T09:07:42;3.03;;;2.70;;
72926;SDS011;61071;51.618;19.388;2023-06-19T09:10:23;2.90;;;2.70;;
72926;SDS011;61071;51.618;19.388;2023-06-19T09:12:55;3.17;;;2.88;;
72926;SDS011;61071;51.618;19.388;2023-06-19T09:15:26;3.33;;;3.03;;
72926;SDS011;61071;51.618;19.388;2023-06-19T09:18:00;3.83;;;2.85;;
72926;SDS011;61071;51.618;19.388;2023-06-19T09:20:28;3.25;;;2.90;;
72926;SDS011;61071;51.618;19.388;2023-06-19T09:23:00;6.43;;;3.03;;
72926;SDS011;61071;51.618;19.388;2023-06-19T09:25:25;3.13;;;2.70;;
72926;SDS011;61071;51.618;19.388;2023-06-19T09:27:55;3.25;;;2.92;;
72926;SDS011;61071;51.618;19.388;2023-06-19T09:30:22;4.03;;;2.78;;
72926;SDS011;61071;51.618;19.388;2023-06-19T09:32:48;3.00;;;2.70;;
72926;SDS011;61071;51.618;19.388;2023-06-19T09:35:14;2.95;;;2.65;;
72926;SDS011;61071;51.618;19.388;2023-06-19T09:37:40;4.50;;;2.78;;
72926;SDS011;61071;51.618;19.388;2023-06-19T09:40:06;3.08;;;2.78;;
72926;SDS011;61071;51.618;19.388;2023-06-19T09:42:39;4.70;;;2.88;;
72926;SDS011;61071;51.618;19.388;2023-06-19T09:45:12;2.80;;;2.60;;
72926;SDS011;61071;51.618;19.388;2023-06-19T09:47:44;3.03;;;2.60;;
72926;SDS011;61071;51.618;19.388;2023-06-19T09:50:12;3.78;;;3.00;;
72926;SDS011;61071;51.618;19.388;2023-06-19T09:52:43;3.40;;;2.80;;
72926;SDS011;61071;51.618;19.388;2023-06-19T09:55:10;2.83;;;2.50;;
72926;SDS011;61071;51.618;19.388;2023-06-19T09:57:40;3.22;;;2.92;;
72926;SDS011;61071;51.618;19.388;2023-06-19T10:00:08;2.53;;;2.33;;
72926;SDS011;61071;51.618;19.388;2023-06-19T10:02:41;3.97;;;2.65;;
72926;SDS011;61071;51.618;19.388;2023-06-19T10:05:09;4.53;;;2.67;;
72926;SDS011;61071;51.618;19.388;2023-06-19T10:07:37;4.25;;;2.42;;
72926;SDS011;61071;51.618;19.388;2023-06-19T10:10:06;2.92;;;2.63;;
72926;SDS011;61071;51.618;19.388;2023-06-19T10:12:38;5.20;;;2.80;;
72926;SDS011;61071;51.618;19.388;2023-06-19T10:15:10;2.42;;;2.22;;
72926;SDS011;61071;51.618;19.388;2023-06-19T10:17:50;3.85;;;2.60;;
72926;SDS011;61071;51.618;19.388;2023-06-19T10:20:31;3.28;;;2.75;;
72926;SDS011;61071;51.618;19.388;2023-06-19T10:23:00;3.40;;;2.70;;
72926;SDS011;61071;51.618;19.388;2023-06-19T10:25:31;3.55;;;2.45;;
72926;SDS011;61071;51.618;19.388;2023-06-19T10:28:15;3.15;;;2.85;;
72926;SDS011;61071;51.618;19.388;2023-06-19T10:31:07;4.55;;;3.05;;
72926;SDS011;61071;51.618;19.388;2023-06-19T10:33:34;2.83;;;2.42;;
72926;SDS011;61071;51.618;19.388;2023-06-19T10:36:14;3.63;;;2.80;;
72926;SDS011;61071;51.618;19.388;2023-06-19T10:38:42;2.85;;;2.40;;
72926;SDS011;61071;51.618;19.388;2023-06-19T10:41:18;5.28;;;3.33;;
72926;SDS011;61071;51.618;19.388;2023-06-19T10:43:57;4.47;;;3.60;;
72926;SDS011;61071;51.618;19.388;2023-06-19T10:46:35;2.88;;;2.67;;
72926;SDS011;61071;51.618;19.388;2023-06-19T10:49:01;2.90;;;2.67;;
72926;SDS011;61071;51.618;19.388;2023-06-19T10:51:39;5.40;;;3.20;;
72926;SDS011;61071;51.618;19.388;2023-06-19T10:54:08;3.20;;;2.90;;
72926;SDS011;61071;51.618;19.388;2023-06-19T10:56:34;3.80;;;2.70;;
72926;SDS011;61071;51.618;19.388;2023-06-19T10:59:00;2.90;;;2.58;;
72926;SDS011;61071;51.618;19.388;2023-06-19T11:01:36;3.28;;;2.97;;
72926;SDS011;61071;51.618;19.388;2023-06-19T11:04:05;4.82;;;3.20;;
72926;SDS011;61071;51.618;19.388;2023-06-19T11:06:36;3.60;;;2.47;;
72926;SDS011;61071;51.618;19.388;2023-06-19T11:09:03;2.60;;;2.40;;
72926;SDS011;61071;51.618;19.388;2023-06-19T11:11:34;3.17;;;2.88;;
72926;SDS011;61071;51.618;19.388;2023-06-19T11:14:05;3.25;;;2.95;;
72926;SDS011;61071;51.618;19.388;2023-06-19T11:16:31;3.33;;;3.00;;
72926;SDS011;61071;51.618;19.388;2023-06-19T11:18:58;3.78;;;2.80;;
72926;SDS011;61071;51.618;19.388;2023-06-19T11:21:31;3.63;;;2.90;;
72926;SDS011;61071;51.618;19.388;2023-06-19T11:24:01;2.95;;;2.60;;
72926;SDS011;61071;51.618;19.388;2023-06-19T11:26:27;2.80;;;2.60;;
72926;SDS011;61071;51.618;19.388;2023-06-19T11:28:52;3.17;;;2.80;;
72926;SDS011;61071;51.618;19.388;2023-06-19T11:31:25;3.10;;;2.80;;
72926;SDS011;61071;51.618;19.388;2023-06-19T11:33:58;2.58;;;2.38;;
72926;SDS011;61071;51.618;19.388;2023-06-19T11:36:26;5.65;;;2.90;;
72926;SDS011;61071;51.618;19.388;2023-06-19T11:38:52;2.97;;;2.67;;
72926;SDS011;61071;51.618;19.388;2023-06-19T11:41:25;4.30;;;3.03;;
72926;SDS011;61071;51.618;19.388;2023-06-19T11:43:57;5.85;;;2.95;;
72926;SDS011;61071;51.618;19.388;2023-06-19T11:46:29;3.40;;;3.00;;
72926;SDS011;61071;51.618;19.388;2023-06-19T11:49:06;4.38;;;3.10;;
72926;SDS011;61071;51.618;19.388;2023-06-19T11:51:33;3.38;;;2.80;;
72926;SDS011;61071;51.618;19.388;2023-06-19T11:53:58;3.30;;;2.40;;
72926;SDS011;61071;51.618;19.388;2023-06-19T11:56:23;3.10;;;2.60;;
72926;SDS011;61071;51.618;19.388;2023-06-19T11:58:49;4.68;;;2.67;;
72926;SDS011;61071;51.618;19.388;2023-06-19T12:01:14;3.60;;;2.92;;
72926;SDS011;61071;51.618;19.388;2023-06-19T12:03:39;2.47;;;2.28;;
72926;SDS011;61071;51.618;19.388;2023-06-19T12:06:05;2.55;;;2.35;;
72926;SDS011;61071;51.618;19.388;2023-06-19T12:08:31;2.70;;;2.50;;
72926;SDS011;61071;51.618;19.388;2023-06-19T12:10:58;3.33;;;2.70;;
72926;SDS011;61071;51.618;19.388;2023-06-19T12:13:23;3.50;;;2.40;;
72926;SDS011;61071;51.618;19.388;2023-06-19T12:15:49;3.22;;;2.80;;
72926;SDS011;61071;51.618;19.388;2023-06-19T12:18:14;2.92;;;2.58;;
72926;SDS011;61071;51.618;19.388;2023-06-19T12:20:40;5.75;;;2.70;;
72926;SDS011;61071;51.618;19.388;2023-06-19T12:23:05;3.65;;;2.58;;
72926;SDS011;61071;51.618;19.388;2023-06-19T12:25:31;2.90;;;2.65;;
72926;SDS011;61071;51.618;19.388;2023-06-19T12:27:57;5.05;;;2.60;;
72926;SDS011;61071;51.618;19.388;2023-06-19T12:30:22;2.83;;;2.60;;
72926;SDS011;61071;51.618;19.388;2023-06-19T12:32:48;2.38;;;2.15;;
72926;SDS011;61071;51.618;19.388;2023-06-19T12:35:14;3.35;;;2.60;;
72926;SDS011;61071;51.618;19.388;2023-06-19T12:37:40;3.03;;;2.53;;
72926;SDS011;61071;51.618;19.388;2023-06-19T12:40:06;3.00;;;2.70;;
72926;SDS011;61071;51.618;19.388;2023-06-19T12:42:35;3.17;;;2.67;;
72926;SDS011;61071;51.618;19.388;2023-06-19T12:45:01;3.38;;;2.63;;
72926;SDS011;61071;51.618;19.388;2023-06-19T12:47:28;2.70;;;2.50;;
72926;SDS011;61071;51.618;19.388;2023-06-19T12:49:53;3.42;;;2.28;;
72926;SDS011;61071;51.618;19.388;2023-06-19T12:52:19;2.80;;;2.60;;
72926;SDS011;61071;51.618;19.388;2023-06-19T12:54:45;2.80;;;2.58;;
72926;SDS011;61071;51.618;19.388;2023-06-19T12:57:10;4.70;;;3.03;;
72926;SDS011;61071;51.618;19.388;2023-06-19T12:59:36;2.63;;;2.42;;
72926;SDS011;61071;51.618;19.388;2023-06-19T13:02:01;2.80;;;2.50;;
72926;SDS011;61071;51.618;19.388;2023-06-19T13:04:27;3.08;;;2.78;;
72926;SDS011;61071;51.618;19.388;2023-06-19T13:06:52;2.95;;;2.45;;
72926;SDS011;61071;51.618;19.388;2023-06-19T13:09:18;3.38;;;3.08;;
72926;SDS011;61071;51.618;19.388;2023-06-19T13:11:43;3.15;;;2.83;;
72926;SDS011;61071;51.618;19.388;2023-06-19T13:14:09;2.60;;;2.40;;
72926;SDS011;61071;51.618;19.388;2023-06-19T13:16:34;2.90;;;2.70;;
72926;SDS011;61071;51.618;19.388;2023-06-19T13:19:00;5.20;;;2.80;;
72926;SDS011;61071;51.618;19.388;2023-06-19T13:21:25;4.22;;;2.72;;
72926;SDS011;61071;51.618;19.388;2023-06-19T13:23:50;3.85;;;2.58;;
72926;SDS011;61071;51.618;19.388;2023-06-19T13:26:16;3.00;;;2.40;;
72926;SDS011;61071;51.618;19.388;2023-06-19T13:28:41;3.28;;;2.40;;
72926;SDS011;61071;51.618;19.388;2023-06-19T13:31:07;3.78;;;2.70;;
72926;SDS011;61071;51.618;19.388;2023-06-19T13:33:32;3.13;;;2.83;;
72926;SDS011;61071;51.618;19.388;2023-06-19T13:35:57;2.80;;;2.60;;
72926;SDS011;61071;51.618;19.388;2023-06-19T13:38:23;3.08;;;2.70;;
72926;SDS011;61071;51.618;19.388;2023-06-19T13:40:48;6.47;;;2.70;;
72926;SDS011;61071;51.618;19.388;2023-06-19T13:43:14;6.28;;;2.80;;
72926;SDS011;61071;51.618;19.388;2023-06-19T13:45:40;2.97;;;2.78;;
72926;SDS011;61071;51.618;19.388;2023-06-19T13:48:06;5.38;;;2.50;;
72926;SDS011;61071;51.618;19.388;2023-06-19T13:50:31;4.95;;;2.38;;
72926;SDS011;61071;51.618;19.388;2023-06-19T13:52:58;4.18;;;2.40;;
72926;SDS011;61071;51.618;19.388;2023-06-19T13:55:24;2.60;;;2.40;;
72926;SDS011;61071;51.618;19.388;2023-06-19T13:57:50;4.18;;;2.40;;
72926;SDS011;61071;51.618;19.388;2023-06-19T14:00:15;4.20;;;2.30;;
72926;SDS011;61071;51.618;19.388;2023-06-19T14:02:41;2.63;;;2.40;;
72926;SDS011;61071;51.618;19.388;2023-06-19T14:05:07;2.97;;;2.47;;
72926;SDS011;61071;51.618;19.388;2023-06-19T14:07:34;6.78;;;2.50;;
72926;SDS011;61071;51.618;19.388;2023-06-19T14:10:01;3.83;;;2.50;;
72926;SDS011;61071;51.618;19.388;2023-06-19T14:12:29;4.30;;;2.90;;
72926;SDS011;61071;51.618;19.388;2023-06-19T14:14:55;2.50;;;2.30;;
72926;SDS011;61071;51.618;19.388;2023-06-19T14:17:21;2.92;;;2.60;;
72926;SDS011;61071;51.618;19.388;2023-06-19T14:19:48;3.33;;;2.17;;
72926;SDS011;61071;51.618;19.388;2023-06-19T14:22:14;5.40;;;2.38;;
72926;SDS011;61071;51.618;19.388;2023-06-19T14:24:39;4.13;;;2.40;;